Time;durP1;ratioP1;P1;durP2;ratioP2;P2;SDS_P1;SDS_P2;PMS_P1;PMS_P2;Temp;Humidity;BMP_temperature;BMP_pressure;BME280_temperature;BME280_humidity;BME280_pressure;Samples;Min_cycle;Max_cycle;Signal;HPM_P1;HPM_P2
2023/07/19 00:02:30;;;;;;;6.85;2.08;;;14.20;99.90;;;;;;7380103;32;20755;-56
2023/07/19 00:06:31;;;;;;;6.70;2.37;;;14.10;99.90;;;;;;7374052;32;20443;-55
2023/07/19 00:10:33;;;;;;;8.85;2.40;;;14.00;99.90;;;;;;7373743;32;20134;-55
2023/07/19 00:14:35;;;;;;;4.22;2.17;;;14.10;99.90;;;;;;7373802;32;20107;-56
2023/07/19 00:18:37;;;;;;;5.32;2.40;;;14.00;99.90;;;;;;7380216;32;20253;-56
2023/07/19 00:22:39;;;;;;;4.80;2.00;;;14.10;99.90;;;;;;7370651;32;20118;-58
2023/07/19 00:26:40;;;;;;;7.87;2.30;;;14.00;99.90;;;;;;7373371;32;20230;-56
2023/07/19 00:30:42;;;;;;;6.18;2.15;;;13.90;99.90;;;;;;7366811;32;20196;-58
2023/07/19 00:34:44;;;;;;;5.97;2.10;;;13.90;99.90;;;;;;7369155;32;20122;-56
2023/07/19 00:38:46;;;;;;;3.62;2.65;;;13.90;99.90;;;;;;7370463;32;20107;-55
2023/07/19 00:42:48;;;;;;;5.70;2.47;;;13.90;99.90;;;;;;7373247;32;20103;-57
2023/07/19 00:46:50;;;;;;;4.82;2.35;;;13.80;99.90;;;;;;7367626;32;20580;-56
2023/07/19 00:50:53;;;;;;;3.70;2.15;;;13.80;99.90;;;;;;7377763;32;20228;-56
2023/07/19 00:54:55;;;;;;;6.07;2.42;;;13.90;99.90;;;;;;7374060;32;20141;-56
2023/07/19 00:58:58;;;;;;;3.25;2.10;;;13.80;99.90;;;;;;7381817;32;20727;-56
2023/07/19 01:02:59;;;;;;;5.60;2.30;;;13.70;99.90;;;;;;7372764;32;20154;-56
2023/07/19 01:07:04;;;;;;;5.00;2.50;;;13.60;99.90;;;;;;7371070;32;20132;-56
2023/07/19 01:11:06;;;;;;;5.53;2.60;;;13.60;99.90;;;;;;7369206;32;20597;-56
2023/07/19 01:15:09;;;;;;;4.50;2.50;;;13.50;99.90;;;;;;7378670;32;20134;-55
2023/07/19 01:19:15;;;;;;;4.85;2.17;;;13.50;99.90;;;;;;7377366;32;20111;-56
2023/07/19 01:23:16;;;;;;;5.28;2.55;;;13.50;99.90;;;;;;7371866;32;20115;-56
2023/07/19 01:27:18;;;;;;;5.85;2.67;;;13.40;99.90;;;;;;7353005;32;20111;-56
2023/07/19 01:31:24;;;;;;;5.70;2.42;;;13.30;99.90;;;;;;7377398;32;20162;-55
2023/07/19 01:35:26;;;;;;;8.68;2.60;;;13.20;99.90;;;;;;7369515;32;20158;-56
2023/07/19 01:39:28;;;;;;;4.82;2.22;;;13.20;99.90;;;;;;7378737;32;20178;-56
2023/07/19 01:43:29;;;;;;;4.18;2.10;;;13.20;99.90;;;;;;7374771;32;20170;-56
2023/07/19 01:47:31;;;;;;;7.68;2.42;;;13.20;99.90;;;;;;7377203;32;20197;-56
2023/07/19 01:51:33;;;;;;;4.85;2.40;;;13.20;99.90;;;;;;7371256;32;20126;-56
2023/07/19 01:55:35;;;;;;;5.62;2.35;;;13.10;99.90;;;;;;7369405;32;20141;-56
2023/07/19 01:59:37;;;;;;;5.90;2.25;;;13.10;99.90;;;;;;7374776;32;20165;-57
2023/07/19 02:03:39;;;;;;;5.32;2.65;;;13.10;99.90;;;;;;7373785;32;20194;-56
2023/07/19 02:07:41;;;;;;;4.90;2.45;;;13.10;99.90;;;;;;7367881;32;20175;-57
2023/07/19 02:11:42;;;;;;;6.43;2.33;;;13.00;99.90;;;;;;7369584;32;20651;-56
2023/07/19 02:15:44;;;;;;;7.28;2.45;;;12.90;99.90;;;;;;7376308;32;20489;-56
2023/07/19 02:19:47;;;;;;;11.10;2.53;;;12.90;99.90;;;;;;7373320;32;20148;-57
2023/07/19 02:23:49;;;;;;;4.55;2.40;;;12.80;99.90;;;;;;7368437;32;20119;-55
2023/07/19 02:27:50;;;;;;;5.75;2.70;;;12.80;99.90;;;;;;7362042;32;20122;-56
2023/07/19 02:31:53;;;;;;;4.75;2.45;;;12.70;99.90;;;;;;7369001;32;20111;-56
2023/07/19 02:35:55;;;;;;;9.00;2.58;;;12.60;99.90;;;;;;7381941;32;20098;-55
2023/07/19 02:39:57;;;;;;;5.28;2.30;;;12.70;99.90;;;;;;7374858;32;20124;-56
2023/07/19 02:43:59;;;;;;;4.93;2.30;;;12.60;99.90;;;;;;7380330;32;20847;-56
2023/07/19 02:48:01;;;;;;;4.93;2.37;;;12.50;99.90;;;;;;7371820;32;20119;-56
2023/07/19 02:52:03;;;;;;;4.25;2.40;;;12.40;99.90;;;;;;7356012;32;20202;-58
2023/07/19 02:56:05;;;;;;;4.03;2.33;;;12.50;99.90;;;;;;7359839;32;20107;-57
2023/07/19 03:00:07;;;;;;;6.60;2.50;;;12.40;99.90;;;;;;7366005;32;20123;-56
2023/07/19 03:04:12;;;;;;;5.40;2.15;;;12.40;99.90;;;;;;7369958;32;20118;-56
2023/07/19 03:08:14;;;;;;;6.85;2.67;;;12.40;99.90;;;;;;7353329;32;20115;-55
2023/07/19 03:12:16;;;;;;;4.45;2.10;;;12.40;99.90;;;;;;7373919;32;20110;-56
2023/07/19 03:16:18;;;;;;;4.90;2.83;;;12.30;99.90;;;;;;7369819;32;20474;-56
2023/07/19 03:20:20;;;;;;;2.72;2.17;;;12.30;99.90;;;;;;7380416;32;20142;-56
2023/07/19 03:24:21;;;;;;;5.10;2.20;;;12.30;99.90;;;;;;7369878;32;20477;-56
2023/07/19 03:28:28;;;;;;;6.75;2.78;;;12.30;99.90;;;;;;7368415;32;20253;-56
2023/07/19 03:32:30;;;;;;;7.30;2.70;;;12.20;99.90;;;;;;7373984;32;20473;-56
2023/07/19 03:36:31;;;;;;;4.15;2.67;;;12.30;99.90;;;;;;7354861;32;20111;-56
2023/07/19 03:40:33;;;;;;;3.85;2.35;;;12.30;99.90;;;;;;7361741;32;20123;-56
2023/07/19 03:44:35;;;;;;;5.15;2.47;;;12.20;99.90;;;;;;7367204;32;20103;-56
2023/07/19 03:48:37;;;;;;;4.85;2.58;;;12.20;99.90;;;;;;7361736;32;20445;-56
2023/07/19 03:52:39;;;;;;;4.93;2.25;;;12.30;99.90;;;;;;7375232;32;20130;-55
2023/07/19 03:56:41;;;;;;;7.68;2.83;;;12.30;99.90;;;;;;7367080;32;20902;-57
2023/07/19 04:00:42;;;;;;;5.55;2.30;;;12.50;99.90;;;;;;7366603;32;20238;-56
2023/07/19 04:04:44;;;;;;;5.85;2.12;;;12.60;99.90;;;;;;7376799;32;20107;-55
2023/07/19 04:08:46;;;;;;;4.50;2.90;;;12.60;99.90;;;;;;7359594;32;20149;-55
2023/07/19 04:12:47;;;;;;;6.28;2.60;;;12.60;99.90;;;;;;7354625;32;20135;-56
2023/07/19 04:16:49;;;;;;;5.03;2.62;;;12.80;99.90;;;;;;7361784;32;20325;-56
2023/07/19 04:20:58;;;;;;;7.37;2.55;;;12.80;99.90;;;;;;7367334;32;20186;-56
2023/07/19 04:25:00;;;;;;;3.40;2.30;;;12.90;99.90;;;;;;7362699;32;20531;-56
2023/07/19 04:29:03;;;;;;;8.77;2.65;;;13.00;99.90;;;;;;7375954;32;20601;-56
2023/07/19 04:33:04;;;;;;;6.93;2.75;;;13.10;99.90;;;;;;7369259;32;20217;-56
2023/07/19 04:37:06;;;;;;;4.47;2.40;;;13.10;99.90;;;;;;7370421;32;20169;-56
2023/07/19 04:41:09;;;;;;;4.40;2.50;;;13.30;99.90;;;;;;7372749;32;20164;-56
2023/07/19 04:45:11;;;;;;;4.37;3.00;;;13.40;99.90;;;;;;7382596;32;20456;-56
2023/07/19 04:49:13;;;;;;;4.37;2.65;;;13.50;99.90;;;;;;7380295;32;20198;-57
2023/07/19 04:53:14;;;;;;;3.83;2.37;;;13.70;99.90;;;;;;7375894;32;20174;-58
2023/07/19 04:57:16;;;;;;;6.65;2.60;;;13.80;99.90;;;;;;7365365;32;20158;-57
2023/07/19 05:01:18;;;;;;;5.62;2.92;;;13.80;99.90;;;;;;7365398;32;20445;-57
2023/07/19 05:05:20;;;;;;;6.87;3.08;;;13.90;99.90;;;;;;7359139;32;20126;-57
2023/07/19 05:09:22;;;;;;;4.57;2.50;;;14.10;99.90;;;;;;7366447;32;20210;-57
2023/07/19 05:13:24;;;;;;;3.67;2.70;;;14.20;99.90;;;;;;7373712;32;20136;-57
2023/07/19 05:17:26;;;;;;;5.85;2.83;;;14.40;99.90;;;;;;7379256;32;20100;-57
2023/07/19 05:21:28;;;;;;;5.28;2.60;;;14.60;99.90;;;;;;7373904;32;20100;-57
2023/07/19 05:25:30;;;;;;;6.37;2.42;;;14.70;99.90;;;;;;7381540;32;20102;-57
2023/07/19 05:29:32;;;;;;;9.55;2.97;;;14.80;99.90;;;;;;7375462;32;20110;-57
2023/07/19 05:33:35;;;;;;;5.12;3.03;;;14.90;99.90;;;;;;7375573;32;20540;-57
2023/07/19 05:37:36;;;;;;;5.53;2.85;;;15.00;99.90;;;;;;7373288;32;20099;-57
2023/07/19 05:41:39;;;;;;;6.72;2.80;;;15.20;99.90;;;;;;7374853;32;20206;-57
2023/07/19 05:45:41;;;;;;;6.70;2.75;;;15.40;99.90;;;;;;7369549;32;20110;-57
2023/07/19 05:49:42;;;;;;;7.10;3.30;;;15.70;99.90;;;;;;7377137;32;20194;-58
2023/07/19 05:53:44;;;;;;;5.25;3.05;;;16.00;99.90;;;;;;7369972;32;20150;-57
2023/07/19 05:57:46;;;;;;;9.07;3.15;;;16.10;99.90;;;;;;7374138;32;20099;-57
2023/07/19 06:01:48;;;;;;;4.72;3.10;;;16.40;99.90;;;;;;7366834;32;20564;-57
2023/07/19 06:05:50;;;;;;;5.68;3.45;;;16.80;99.90;;;;;;7376870;32;20525;-57
2023/07/19 06:09:52;;;;;;;4.18;2.65;;;17.20;99.90;;;;;;7369840;32;20317;-58
2023/07/19 06:13:54;;;;;;;7.10;3.37;;;17.50;99.90;;;;;;7375845;32;20107;-57
2023/07/19 06:17:56;;;;;;;8.60;3.62;;;17.50;99.90;;;;;;7377611;32;20273;-57
2023/07/19 06:21:59;;;;;;;8.35;3.35;;;17.50;99.90;;;;;;7369234;32;20117;-57
2023/07/19 06:26:01;;;;;;;6.75;3.00;;;17.70;99.90;;;;;;7381433;32;20098;-58
2023/07/19 06:30:07;;;;;;;8.80;3.28;;;17.80;99.90;;;;;;7375897;32;20460;-57
2023/07/19 06:34:09;;;;;;;8.48;3.50;;;17.80;99.90;;;;;;7375065;32;20126;-56
2023/07/19 06:38:11;;;;;;;5.28;3.15;;;17.90;99.90;;;;;;7374905;32;20103;-56
2023/07/19 06:42:12;;;;;;;10.68;3.85;;;17.90;99.90;;;;;;7377551;32;20201;-58
2023/07/19 06:46:14;;;;;;;6.35;3.12;;;18.10;99.90;;;;;;7378622;32;20134;-58
2023/07/19 06:50:17;;;;;;;8.50;3.03;;;18.20;99.90;;;;;;7371815;32;20107;-58
2023/07/19 06:54:19;;;;;;;8.70;3.25;;;18.20;99.90;;;;;;7374450;32;20137;-57
2023/07/19 06:58:21;;;;;;;8.90;3.42;;;18.30;99.90;;;;;;7373701;32;20204;-57
2023/07/19 07:02:22;;;;;;;7.30;3.62;;;18.20;99.90;;;;;;7380356;32;20201;-57
2023/07/19 07:06:24;;;;;;;7.10;4.03;;;18.30;99.90;;;;;;7370522;32;20563;-57
2023/07/19 07:10:26;;;;;;;7.22;4.07;;;18.50;99.90;;;;;;7373014;32;20219;-56
2023/07/19 07:14:28;;;;;;;8.52;3.45;;;18.50;99.90;;;;;;7373914;32;20497;-56
2023/07/19 07:18:30;;;;;;;9.82;3.97;;;18.60;99.90;;;;;;7373336;32;20110;-56
2023/07/19 07:22:32;;;;;;;8.23;3.90;;;18.70;99.90;;;;;;7369740;32;20104;-57
2023/07/19 07:26:34;;;;;;;9.68;3.62;;;18.70;99.90;;;;;;7373978;32;20125;-57
2023/07/19 07:30:37;;;;;;;9.52;3.70;;;18.70;99.90;;;;;;7380456;32;20162;-57
2023/07/19 07:34:39;;;;;;;8.88;3.72;;;18.80;99.90;;;;;;7377629;32;20103;-56
2023/07/19 07:38:41;;;;;;;7.60;4.07;;;18.80;99.90;;;;;;7371846;32;20155;-58
2023/07/19 07:42:42;;;;;;;9.70;4.00;;;18.70;99.90;;;;;;7371695;32;20236;-57
2023/07/19 07:46:46;;;;;;;9.73;4.47;;;18.50;99.90;;;;;;7374813;32;20170;-57
2023/07/19 07:50:51;;;;;;;7.93;4.37;;;18.20;99.90;;;;;;7372799;32;20122;-57
2023/07/19 07:54:53;;;;;;;10.10;4.30;;;18.10;99.90;;;;;;7362613;32;20205;-56
2023/07/19 07:58:55;;;;;;;11.30;4.50;;;18.00;99.90;;;;;;7368434;32;20799;-57
2023/07/19 08:02:56;;;;;;;11.43;4.45;;;18.20;99.90;;;;;;7378423;32;20126;-59
2023/07/19 08:06:58;;;;;;;9.65;4.68;;;18.30;99.90;;;;;;7362470;32;20169;-57
2023/07/19 08:11:05;;;;;;;10.77;4.80;;;18.40;99.90;;;;;;7385184;32;20115;-57
2023/07/19 08:15:07;;;;;;;7.77;4.47;;;18.50;99.90;;;;;;7383303;32;20573;-57
2023/07/19 08:19:09;;;;;;;9.57;5.03;;;18.80;99.90;;;;;;7378340;32;20553;-57
2023/07/19 08:23:10;;;;;;;11.75;5.15;;;19.00;99.90;;;;;;7379712;32;20112;-56
2023/07/19 08:27:12;;;;;;;10.13;4.95;;;19.00;99.90;;;;;;7382053;32;20126;-58
2023/07/19 08:31:15;;;;;;;9.90;4.45;;;19.00;99.90;;;;;;7379624;32;20106;-57
2023/07/19 08:35:18;;;;;;;10.95;5.15;;;18.90;99.90;;;;;;7373396;32;20108;-57
2023/07/19 08:39:19;;;;;;;10.07;5.15;;;18.90;99.90;;;;;;7378040;32;20466;-57
2023/07/19 08:43:26;;;;;;;10.43;5.30;;;18.80;99.90;;;;;;7371082;32;20119;-56
2023/07/19 08:47:29;;;;;;;11.38;4.90;;;18.90;99.90;;;;;;7367480;32;20202;-57
2023/07/19 08:51:32;;;;;;;10.48;4.62;;;18.80;99.90;;;;;;7375408;32;20103;-57
2023/07/19 08:55:34;;;;;;;11.75;5.30;;;18.80;99.90;;;;;;7377917;32;20137;-55
2023/07/19 08:59:36;;;;;;;11.80;5.80;;;18.70;99.90;;;;;;7380238;32;20821;-56
2023/07/19 09:03:38;;;;;;;11.30;5.97;;;18.60;99.90;;;;;;7377815;32;20456;-56
2023/07/19 09:07:40;;;;;;;12.68;6.47;;;18.60;99.90;;;;;;7382193;32;20129;-55
2023/07/19 09:11:46;;;;;;;9.55;5.75;;;18.80;99.90;;;;;;7377079;32;20103;-56
2023/07/19 09:15:48;;;;;;;12.27;6.62;;;18.90;99.90;;;;;;7375175;32;20175;-56
2023/07/19 09:19:50;;;;;;;13.90;6.70;;;19.00;99.90;;;;;;7373091;32;20520;-56
2023/07/19 09:23:53;;;;;;;10.85;6.68;;;19.00;99.90;;;;;;7375495;32;20107;-57
2023/07/19 09:27:55;;;;;;;11.70;6.65;;;18.90;99.90;;;;;;7379631;32;20124;-57
2023/07/19 09:31:59;;;;;;;10.23;6.15;;;18.80;99.90;;;;;;7376348;32;20171;-57
2023/07/19 09:36:01;;;;;;;15.13;7.50;;;18.80;99.90;;;;;;7377187;32;20110;-57
2023/07/19 09:40:05;;;;;;;8.95;6.68;;;18.80;99.90;;;;;;7374489;32;20230;-57
2023/07/19 09:44:09;;;;;;;14.43;6.90;;;18.80;99.90;;;;;;7369741;32;20129;-57
2023/07/19 09:48:12;;;;;;;12.27;7.45;;;18.90;99.90;;;;;;7378573;32;20207;-56
2023/07/19 09:52:18;;;;;;;11.30;7.05;;;19.30;99.90;;;;;;7372693;32;20184;-56
2023/07/19 09:56:20;;;;;;;11.90;7.05;;;20.10;99.90;;;;;;7376134;32;20110;-56
2023/07/19 10:00:22;;;;;;;11.43;7.20;;;21.20;99.90;;;;;;7381113;32;20416;-57
2023/07/19 10:04:28;;;;;;;9.93;6.05;;;21.70;99.90;;;;;;7366820;32;20502;-56
2023/07/19 10:08:30;;;;;;;14.87;6.80;;;22.10;99.90;;;;;;7377665;32;20115;-56
2023/07/19 10:12:36;;;;;;;8.60;5.60;;;22.20;99.90;;;;;;7374007;32;20150;-57
2023/07/19 10:16:48;;;;;;;11.23;5.60;;;22.00;99.90;;;;;;7373063;32;20111;-56
2023/07/19 10:21:00;;;;;;;8.30;5.32;;;21.80;99.90;;;;;;7373531;32;20221;-56
2023/07/19 10:25:05;;;;;;;10.70;5.12;;;21.50;99.90;;;;;;7367613;32;20551;-57
2023/07/19 10:29:07;;;;;;;10.80;5.47;;;21.20;99.90;;;;;;7370919;32;20127;-56
2023/07/19 10:33:09;;;;;;;8.50;5.10;;;21.50;99.90;;;;;;7371595;32;20185;-57
2023/07/19 10:37:11;;;;;;;10.98;5.53;;;21.40;99.90;;;;;;7381232;32;20404;-56
2023/07/19 10:41:15;;;;;;;7.35;4.45;;;21.40;99.90;;;;;;7380439;32;20552;-56
2023/07/19 10:45:17;;;;;;;10.20;5.07;;;21.80;99.90;;;;;;7378426;32;20107;-56
2023/07/19 10:49:21;;;;;;;7.85;4.70;;;21.60;99.90;;;;;;7368338;32;20458;-56
2023/07/19 10:53:24;;;;;;;9.60;4.70;;;21.80;99.90;;;;;;7374474;32;20198;-57
2023/07/19 10:57:27;;;;;;;10.77;4.62;;;22.50;99.90;;;;;;7380421;32;20115;-57
2023/07/19 11:01:29;;;;;;;8.73;4.32;;;22.60;99.90;;;;;;7372031;32;20115;-58
2023/07/19 11:05:40;;;;;;;10.02;4.85;;;22.70;99.90;;;;;;7378509;32;20651;-57
2023/07/19 11:09:42;;;;;;;13.25;4.82;;;22.70;99.90;;;;;;7378473;32;20103;-57
2023/07/19 11:13:46;;;;;;;11.85;4.60;;;23.10;99.90;;;;;;7368104;32;20779;-57
2023/07/19 11:17:48;;;;;;;7.47;3.47;;;23.50;99.90;;;;;;7374128;32;20128;-57
2023/07/19 11:21:50;;;;;;;6.32;3.05;;;23.60;99.90;;;;;;7377144;32;20153;-57
2023/07/19 11:26:05;;;;;;;6.03;2.60;;;24.10;99.90;;;;;;7377448;32;20715;-57
2023/07/19 11:30:07;;;;;;;6.72;2.08;;;23.70;99.90;;;;;;7367904;32;20110;-57
2023/07/19 11:34:16;;;;;;;6.82;2.55;;;23.80;99.90;;;;;;7376412;32;20163;-56
2023/07/19 11:38:18;;;;;;;6.20;2.00;;;23.80;99.90;;;;;;7380110;32;20104;-57
2023/07/19 11:42:58;;;;;;;3.70;1.52;;;23.90;99.90;;;;;;7379451;32;20111;-57
2023/07/19 11:47:00;;;;;;;8.80;2.58;;;23.70;99.90;;;;;;7255312;32;20147;-56
2023/07/19 11:51:02;;;;;;;10.93;2.47;;;23.50;99.90;;;;;;7310971;32;20110;-57
2023/07/19 11:55:05;;;;;;;5.82;2.03;;;23.50;99.90;;;;;;7379414;32;20224;-57
2023/07/19 11:59:07;;;;;;;5.87;1.60;;;23.80;99.90;;;;;;7370399;32;20731;-57
2023/07/19 12:03:09;;;;;;;7.07;1.65;;;24.10;99.90;;;;;;7377283;32;20551;-57
2023/07/19 12:07:11;;;;;;;3.00;1.35;;;24.20;99.90;;;;;;7379305;32;20129;-57
2023/07/19 12:11:13;;;;;;;7.40;1.45;;;24.60;99.90;;;;;;7373199;32;20562;-57
2023/07/19 12:15:15;;;;;;;3.65;1.30;;;24.70;99.90;;;;;;7378312;32;20809;-57
2023/07/19 12:19:17;;;;;;;3.08;1.20;;;24.80;99.90;;;;;;7361794;32;20258;-57
2023/07/19 12:23:18;;;;;;;2.90;1.30;;;24.40;99.90;;;;;;7365575;32;20122;-57
2023/07/19 12:27:34;;;;;;;3.42;1.58;;;24.30;99.90;;;;;;7369565;32;20182;-58
2023/07/19 12:31:36;;;;;;;3.47;1.55;;;25.00;99.90;;;;;;7379168;32;20159;-58
2023/07/19 12:35:38;;;;;;;4.75;1.50;;;24.80;99.90;;;;;;7375554;32;20528;-56
2023/07/19 12:39:40;;;;;;;6.25;1.90;;;25.10;99.90;;;;;;7366938;32;20106;-57
2023/07/19 12:43:42;;;;;;;5.35;1.70;;;24.60;99.90;;;;;;7370918;32;20162;-57
2023/07/19 12:47:44;;;;;;;7.60;1.80;;;24.30;99.90;;;;;;7384009;32;20194;-57
2023/07/19 12:51:46;;;;;;;5.65;1.98;;;24.70;99.90;;;;;;7375173;32;20111;-57
2023/07/19 12:55:48;;;;;;;6.22;2.22;;;25.20;99.90;;;;;;7373034;32;20129;-57
2023/07/19 12:59:49;;;;;;;3.87;1.55;;;25.00;99.90;;;;;;7383371;32;20103;-57
2023/07/19 13:03:51;;;;;;;4.22;1.90;;;24.50;99.90;;;;;;7371524;32;20171;-57
2023/07/19 13:07:53;;;;;;;4.37;1.80;;;24.70;99.90;;;;;;7383217;32;20133;-57
2023/07/19 13:11:55;;;;;;;4.22;1.60;;;24.70;99.90;;;;;;7373579;32;20192;-57
2023/07/19 13:15:57;;;;;;;5.60;1.80;;;25.30;99.90;;;;;;7383031;32;20167;-57
2023/07/19 13:19:59;;;;;;;4.60;1.30;;;25.60;99.90;;;;;;7376662;32;20514;-58
2023/07/19 13:24:01;;;;;;;4.15;1.67;;;25.40;99.90;;;;;;7378939;32;20115;-58
2023/07/19 13:28:03;;;;;;;4.40;1.35;;;25.20;99.90;;;;;;7375949;32;20110;-58
2023/07/19 13:32:05;;;;;;;4.00;1.20;;;25.00;99.90;;;;;;7380714;32;20193;-58
2023/07/19 13:36:09;;;;;;;3.10;1.20;;;24.90;99.90;;;;;;7378328;32;20261;-58
2023/07/19 13:40:14;;;;;;;2.53;1.02;;;25.40;99.90;;;;;;7369935;32;20108;-58
2023/07/19 13:44:15;;;;;;;3.58;1.40;;;25.40;99.90;;;;;;7380496;32;20791;-58
2023/07/19 13:48:17;;;;;;;4.37;1.10;;;25.50;99.90;;;;;;7380436;32;20183;-58
2023/07/19 13:52:19;;;;;;;2.78;0.90;;;25.50;99.90;;;;;;7379856;32;20128;-58
2023/07/19 13:56:21;;;;;;;2.12;0.80;;;25.80;99.90;;;;;;7379122;32;20153;-58
2023/07/19 14:00:24;;;;;;;3.95;1.00;;;26.10;99.60;;;;;;7376079;32;20256;-58
2023/07/19 14:04:25;;;;;;;3.33;0.80;;;25.80;97.20;;;;;;7376530;32;20956;-58
2023/07/19 14:08:27;;;;;;;7.40;1.12;;;25.50;98.20;;;;;;7375146;32;20170;-58
2023/07/19 14:12:29;;;;;;;4.07;1.15;;;24.90;98.80;;;;;;7379777;32;20528;-58
2023/07/19 14:16:34;;;;;;;3.05;0.75;;;25.00;99.90;;;;;;7377651;32;20118;-58
2023/07/19 14:20:36;;;;;;;5.12;1.00;;;25.50;98.40;;;;;;7371738;32;20121;-58
2023/07/19 14:24:38;;;;;;;4.12;1.10;;;25.30;98.90;;;;;;7378060;32;20166;-58
2023/07/19 14:28:42;;;;;;;2.72;1.08;;;25.40;99.20;;;;;;7367599;32;20126;-58
2023/07/19 14:32:44;;;;;;;3.10;0.70;;;25.40;97.60;;;;;;7370507;32;20205;-57
2023/07/19 14:36:47;;;;;;;3.70;0.88;;;25.10;98.80;;;;;;7377316;32;20121;-58
2023/07/19 14:40:50;;;;;;;4.47;1.20;;;25.00;99.90;;;;;;7373922;32;20149;-58
2023/07/19 14:44:52;;;;;;;5.57;1.23;;;25.20;99.90;;;;;;7375110;32;20110;-58
2023/07/19 14:48:54;;;;;;;4.10;1.30;;;25.10;99.90;;;;;;7373554;32;20111;-58
2023/07/19 14:52:56;;;;;;;3.60;1.30;;;24.80;99.90;;;;;;7380426;32;20135;-58
2023/07/19 14:57:09;;;;;;;4.35;1.23;;;24.80;99.90;;;;;;7376626;32;20122;-58
2023/07/19 15:01:11;;;;;;;5.50;1.20;;;24.90;99.90;;;;;;7376726;32;20126;-58
2023/07/19 15:05:19;;;;;;;4.28;1.48;;;24.90;99.90;;;;;;7375648;32;20286;-58
2023/07/19 15:09:21;;;;;;;4.93;1.12;;;25.00;99.90;;;;;;7367937;32;20225;-59
2023/07/19 15:13:25;;;;;;;3.80;1.50;;;25.00;99.90;;;;;;7368814;32;20206;-57
2023/07/19 15:17:27;;;;;;;4.05;0.95;;;24.90;99.90;;;;;;7376355;32;20265;-58
2023/07/19 15:21:30;;;;;;;4.07;1.17;;;24.50;99.90;;;;;;7370708;32;20135;-58
2023/07/19 15:25:33;;;;;;;4.72;1.30;;;24.20;99.90;;;;;;7367473;32;20126;-58
2023/07/19 15:29:36;;;;;;;6.03;0.85;;;24.00;99.90;;;;;;7380503;32;20532;-58
2023/07/19 15:33:37;;;;;;;4.43;1.00;;;23.70;99.90;;;;;;7373200;32;20118;-58
2023/07/19 15:37:39;;;;;;;2.35;0.80;;;23.40;99.90;;;;;;7378969;32;20408;-58
2023/07/19 15:41:41;;;;;;;2.22;0.68;;;23.40;99.90;;;;;;7377632;32;20269;-58
2023/07/19 15:45:43;;;;;;;2.95;1.10;;;23.60;99.90;;;;;;7373230;32;20126;-58
2023/07/19 15:49:45;;;;;;;4.10;0.90;;;23.60;99.90;;;;;;7375968;32;20194;-58
2023/07/19 15:53:47;;;;;;;2.97;0.90;;;23.60;99.90;;;;;;7373882;32;20477;-58
2023/07/19 15:57:49;;;;;;;3.40;1.00;;;23.60;99.90;;;;;;7377212;32;20189;-57
2023/07/19 16:01:50;;;;;;;2.85;0.70;;;23.50;99.90;;;;;;7375325;32;20299;-58
2023/07/19 16:05:53;;;;;;;2.78;1.10;;;23.30;99.90;;;;;;7378464;32;20116;-58
2023/07/19 16:09:54;;;;;;;2.97;1.08;;;23.10;99.90;;;;;;7374043;32;20174;-58
2023/07/19 16:13:57;;;;;;;2.22;0.98;;;22.90;99.90;;;;;;7379695;32;20198;-58
2023/07/19 16:17:59;;;;;;;4.05;0.75;;;22.50;99.90;;;;;;7377152;32;20430;-58
2023/07/19 16:22:01;;;;;;;3.55;0.90;;;22.40;99.90;;;;;;7374164;32;20171;-58
2023/07/19 16:26:03;;;;;;;2.05;0.85;;;22.30;99.90;;;;;;7372624;32;20854;-58
2023/07/19 16:30:05;;;;;;;3.28;1.10;;;22.10;99.90;;;;;;7377264;32;20205;-58
2023/07/19 16:34:07;;;;;;;2.83;1.00;;;22.00;99.90;;;;;;7382069;32;20103;-58
2023/07/19 16:38:09;;;;;;;4.12;1.00;;;21.40;99.90;;;;;;7375346;32;20111;-57
2023/07/19 16:42:11;;;;;;;5.20;1.37;;;20.90;99.90;;;;;;7378904;32;20545;-56
2023/07/19 16:46:13;;;;;;;2.17;1.02;;;20.60;99.90;;;;;;7379915;32;20111;-57
2023/07/19 16:50:15;;;;;;;1.95;0.88;;;20.50;99.90;;;;;;7383843;32;20197;-56
2023/07/19 16:54:17;;;;;;;2.85;1.20;;;20.30;99.90;;;;;;7365977;32;20134;-57
2023/07/19 16:58:19;;;;;;;2.45;1.35;;;20.20;99.90;;;;;;7376941;32;20732;-58
2023/07/19 17:02:21;;;;;;;1.67;1.05;;;20.20;99.90;;;;;;7369816;32;20245;-57
2023/07/19 17:06:23;;;;;;;2.12;1.00;;;20.20;99.90;;;;;;7381882;32;20450;-56
2023/07/19 17:10:24;;;;;;;2.87;1.20;;;20.10;99.90;;;;;;7374438;32;20161;-57
2023/07/19 17:14:26;;;;;;;2.90;1.20;;;20.00;99.90;;;;;;7380943;32;20142;-57
2023/07/19 17:18:28;;;;;;;1.50;1.20;;;20.00;99.90;;;;;;7373722;32;20116;-57
2023/07/19 17:22:30;;;;;;;2.53;1.05;;;20.00;99.90;;;;;;7369611;32;20138;-57
2023/07/19 17:26:32;;;;;;;2.53;1.23;;;20.10;99.90;;;;;;7372296;32;20141;-57
2023/07/19 17:30:33;;;;;;;3.28;1.52;;;20.40;99.90;;;;;;7366034;32;20129;-57
2023/07/19 17:34:35;;;;;;;5.82;1.90;;;20.60;99.90;;;;;;7373270;32;20125;-57
2023/07/19 17:38:37;;;;;;;2.75;1.40;;;20.70;99.90;;;;;;7371977;32;20095;-57
2023/07/19 17:42:40;;;;;;;4.32;1.40;;;20.60;99.90;;;;;;7367167;32;20194;-57
2023/07/19 17:46:42;;;;;;;3.78;1.42;;;20.70;99.90;;;;;;7376398;32;20107;-58
2023/07/19 17:50:44;;;;;;;3.95;1.90;;;20.70;99.90;;;;;;7371963;32;20096;-57
2023/07/19 17:54:46;;;;;;;4.37;1.73;;;20.60;99.90;;;;;;7376724;32;20124;-57
2023/07/19 17:58:49;;;;;;;5.62;2.12;;;20.50;99.90;;;;;;7364604;32;20468;-57
2023/07/19 18:02:52;;;;;;;4.22;1.75;;;20.50;99.90;;;;;;7374174;32;20187;-58
2023/07/19 18:06:54;;;;;;;3.78;1.65;;;20.50;99.90;;;;;;7375023;32;20194;-57
2023/07/19 18:10:56;;;;;;;4.25;2.17;;;20.50;99.90;;;;;;7373403;32;20194;-57
2023/07/19 18:14:58;;;;;;;5.07;2.28;;;20.40;99.90;;;;;;7378078;32;20107;-58
2023/07/19 18:19:00;;;;;;;3.40;1.80;;;20.40;99.90;;;;;;7379358;32;20489;-57
2023/07/19 18:23:02;;;;;;;4.70;2.20;;;20.40;99.90;;;;;;7381636;32;20456;-57
2023/07/19 18:27:04;;;;;;;4.65;1.62;;;20.40;99.90;;;;;;7381678;32;20631;-58
2023/07/19 18:31:06;;;;;;;4.15;1.75;;;20.30;99.90;;;;;;7375494;32;20305;-57
2023/07/19 18:35:08;;;;;;;6.30;2.10;;;20.40;99.90;;;;;;7372675;32;20560;-58
2023/07/19 18:39:12;;;;;;;7.60;1.98;;;20.30;99.90;;;;;;7376376;32;20107;-57
2023/07/19 18:43:13;;;;;;;5.45;1.65;;;20.20;99.90;;;;;;7379214;32;20098;-57
2023/07/19 18:47:15;;;;;;;4.62;1.65;;;20.20;99.90;;;;;;7373464;32;20111;-57
2023/07/19 18:51:17;;;;;;;4.80;1.75;;;20.30;99.90;;;;;;7381028;32;20137;-58
2023/07/19 18:55:19;;;;;;;4.43;1.40;;;20.20;99.90;;;;;;7375933;32;20103;-57
2023/07/19 18:59:21;;;;;;;5.20;1.40;;;20.10;99.90;;;;;;7363228;32;20364;-57
2023/07/19 19:03:22;;;;;;;2.53;1.20;;;20.10;99.90;;;;;;7380633;32;20126;-58
2023/07/19 19:07:24;;;;;;;3.78;1.50;;;20.00;99.90;;;;;;7379213;32;20131;-58
2023/07/19 19:11:26;;;;;;;6.12;1.58;;;19.90;99.90;;;;;;7376929;32;20202;-57
2023/07/19 19:15:28;;;;;;;2.62;1.10;;;19.90;99.90;;;;;;7375482;32;20146;-57
2023/07/19 19:19:30;;;;;;;6.70;1.30;;;19.90;99.90;;;;;;7376874;32;20734;-57
2023/07/19 19:23:31;;;;;;;5.05;1.30;;;19.80;99.90;;;;;;7376279;32;20810;-58
2023/07/19 19:27:34;;;;;;;3.17;1.20;;;19.70;99.90;;;;;;7373723;32;20472;-57
2023/07/19 19:31:36;;;;;;;3.65;1.55;;;19.70;99.90;;;;;;7379679;32;20196;-57
2023/07/19 19:35:38;;;;;;;2.75;1.30;;;19.70;99.90;;;;;;7376661;32;20211;-58
2023/07/19 19:39:40;;;;;;;2.92;1.25;;;19.50;99.90;;;;;;7375139;32;20308;-58
2023/07/19 19:43:42;;;;;;;2.95;1.10;;;19.40;99.90;;;;;;7362593;32;20152;-58
2023/07/19 19:47:44;;;;;;;3.47;1.15;;;19.40;99.90;;;;;;7379165;32;20247;-58
2023/07/19 19:51:46;;;;;;;2.75;1.27;;;19.30;99.90;;;;;;7379692;32;20098;-56
2023/07/19 19:55:47;;;;;;;2.53;1.33;;;19.40;99.90;;;;;;7373862;32;20209;-58
2023/07/19 19:59:50;;;;;;;5.18;1.60;;;19.30;99.90;;;;;;7369776;32;20140;-58
2023/07/19 20:03:52;;;;;;;3.65;1.70;;;19.30;99.90;;;;;;7370660;32;20135;-57
2023/07/19 20:07:54;;;;;;;5.05;2.03;;;19.40;99.90;;;;;;7374785;32;20124;-56
2023/07/19 20:11:58;;;;;;;7.35;2.28;;;19.20;99.90;;;;;;7377988;32;20197;-57
2023/07/19 20:16:00;;;;;;;5.97;2.40;;;19.10;99.90;;;;;;7378624;32;20202;-56
2023/07/19 20:20:03;;;;;;;3.55;2.00;;;19.00;99.90;;;;;;7382983;32;20107;-57
2023/07/19 20:24:10;;;;;;;7.60;2.10;;;18.90;99.90;;;;;;7375781;32;20172;-57
2023/07/19 20:28:15;;;;;;;;;;;18.90;99.90;;;;;;7367585;32;20099;-57
2023/07/19 20:32:16;;;;;;;3.78;1.85;;;18.80;99.90;;;;;;7353581;32;20109;-56
2023/07/19 20:36:21;;;;;;;6.78;1.90;;;18.80;99.90;;;;;;7382961;32;20281;-56
2023/07/19 20:40:26;;;;;;;4.12;1.85;;;18.70;99.90;;;;;;7382397;32;20207;-57
2023/07/19 20:44:31;;;;;;;5.60;1.40;;;18.50;99.90;;;;;;7378433;32;20647;-59
2023/07/19 20:48:36;;;;;;;7.87;1.98;;;18.50;99.90;;;;;;7373702;32;20470;-58
2023/07/19 20:52:40;;;;;;;5.55;2.10;;;18.50;99.90;;;;;;7377365;32;20696;-56
2023/07/19 20:56:42;;;;;;;6.05;2.03;;;18.30;99.90;;;;;;7378811;32;20099;-56
2023/07/19 21:00:45;;;;;;;4.68;1.80;;;18.20;99.90;;;;;;7364748;32;20103;-56